createdAt,value
2019-03-16T00:00:32.402Z,9.60
2019-03-16T00:03:02.743Z,9.60
2019-03-16T00:05:33.109Z,9.10
2019-03-16T00:08:03.761Z,9.30
2019-03-16T00:10:34.508Z,9.50
2019-03-16T00:13:05.278Z,9.40
2019-03-16T00:15:35.638Z,9.30
2019-03-16T00:18:06.092Z,9.60
2019-03-16T00:20:36.717Z,9.10
2019-03-16T00:23:07.070Z,9.40
2019-03-16T00:25:37.776Z,9.30
2019-03-16T00:28:09.767Z,9.60
2019-03-16T00:30:41.104Z,9.20
2019-03-16T00:33:11.364Z,9.60
2019-03-16T00:35:41.708Z,9.60
2019-03-16T00:38:12.098Z,9.50
2019-03-16T00:40:43.102Z,9.50
2019-03-16T00:43:15.248Z,9.50
2019-03-16T00:45:46.102Z,9.20
2019-03-16T00:48:16.720Z,9.20
2019-03-16T00:50:47.383Z,9.00
2019-03-16T00:53:17.752Z,9.20
2019-03-16T00:55:48.839Z,9.30
2019-03-16T00:58:19.821Z,9.30
2019-03-16T01:00:50.248Z,9.30
2019-03-16T01:03:20.972Z,9.20
2019-03-16T01:05:51.462Z,9.30
2019-03-16T01:08:21.985Z,9.30
2019-03-16T01:10:54.168Z,9.30
2019-03-16T01:13:25.918Z,9.00
2019-03-16T01:15:56.264Z,9.00
2019-03-16T01:18:26.698Z,9.20
2019-03-16T01:20:57.638Z,9.20
2019-03-16T01:23:28.266Z,9.20
2019-03-16T01:26:00.102Z,9.30
2019-03-16T01:28:31.943Z,9.30
2019-03-16T01:31:02.745Z,9.10
2019-03-16T01:33:34.530Z,9.30
2019-03-16T01:36:04.814Z,9.20
2019-03-16T01:38:36.111Z,9.30
2019-03-16T01:41:06.689Z,9.10
2019-03-16T01:43:37.118Z,9.30
2019-03-16T01:46:08.557Z,9.30
2019-03-16T01:48:40.326Z,9.30
2019-03-16T01:51:12.174Z,9.20
2019-03-16T01:53:42.522Z,9.00
2019-03-16T01:56:13.247Z,9.10
2019-03-16T01:58:45.669Z,9.00
2019-03-16T02:01:16.985Z,8.90
2019-03-16T02:03:47.696Z,9.30
2019-03-16T02:06:19.877Z,9.00
2019-03-16T02:08:53.033Z,9.30
2019-03-16T02:11:23.907Z,9.20
2019-03-16T02:13:54.629Z,8.90
2019-03-16T02:16:25.065Z,9.00
2019-03-16T02:18:55.551Z,9.00
2019-03-16T02:21:26.523Z,8.90
2019-03-16T02:23:57.013Z,9.00
2019-03-16T02:26:29.136Z,8.80
2019-03-16T02:29:00.562Z,8.90
2019-03-16T02:31:32.310Z,9.10
2019-03-16T02:34:04.023Z,9.20
2019-03-16T02:36:34.548Z,9.20
2019-03-16T02:39:06.961Z,9.20
2019-03-16T02:41:40.746Z,9.00
2019-03-16T02:44:11.690Z,9.20
2019-03-16T02:46:42.231Z,9.20
2019-03-16T02:49:14.464Z,8.90
2019-03-16T02:51:44.924Z,9.20
2019-03-16T02:54:15.720Z,9.20
2019-03-16T02:56:47.774Z,9.00
2019-03-16T02:59:19.640Z,8.90
2019-03-16T03:01:50.130Z,9.00
2019-03-16T03:04:20.536Z,9.00
2019-03-16T03:06:52.449Z,8.80
2019-03-16T03:09:23.821Z,9.20
2019-03-16T03:11:56.088Z,9.10
2019-03-16T03:14:27.475Z,9.10
2019-03-16T03:16:57.850Z,9.30
2019-03-16T03:19:28.368Z,8.90
2019-03-16T03:22:02.070Z,9.00
2019-03-16T03:24:34.252Z,9.20
2019-03-16T03:27:06.865Z,9.20
2019-03-16T03:29:39.334Z,9.20
2019-03-16T03:32:10.667Z,9.30
2019-03-16T03:34:42.506Z,8.70
2019-03-16T03:37:12.982Z,8.80
2019-03-16T03:39:43.464Z,9.20
2019-03-16T03:42:13.841Z,9.10
2019-03-16T03:44:44.231Z,9.20
2019-03-16T03:47:15.644Z,8.70
2019-03-16T03:49:46.009Z,8.80
2019-03-16T03:52:19.541Z,8.70
2019-03-16T03:54:50.294Z,8.90
2019-03-16T03:57:22.090Z,9.00
2019-03-16T03:59:52.411Z,8.80
2019-03-16T04:02:25.723Z,8.80
2019-03-16T04:04:56.488Z,8.70
2019-03-16T04:07:28.764Z,9.00
2019-03-16T04:09:59.193Z,8.70
2019-03-16T04:12:30.221Z,8.70
2019-03-16T04:15:02.204Z,8.70
2019-03-16T04:17:32.895Z,8.90
2019-03-16T04:20:05.714Z,9.00
2019-03-16T04:22:36.610Z,8.90
2019-03-16T04:25:08.221Z,8.90
2019-03-16T04:27:40.565Z,8.90
2019-03-16T04:30:11.024Z,8.90
2019-03-16T04:32:46.305Z,8.90
2019-03-16T04:35:17.952Z,8.70
2019-03-16T04:37:48.461Z,8.90
2019-03-16T04:40:18.891Z,8.90
2019-03-16T04:42:49.680Z,8.80
2019-03-16T04:45:22.367Z,8.80
2019-03-16T04:47:52.727Z,8.90
2019-03-16T04:50:23.204Z,8.70
2019-03-16T04:52:54.559Z,8.70
2019-03-16T04:55:25.941Z,8.70
2019-03-16T04:57:59.297Z,9.00
2019-03-16T05:00:30.506Z,8.80
2019-03-16T05:03:01.904Z,9.10
2019-03-16T05:05:35.301Z,8.90
2019-03-16T05:08:06.874Z,8.70
2019-03-16T05:10:38.856Z,9.10
2019-03-16T05:13:12.010Z,8.90
2019-03-16T05:15:44.710Z,9.00
2019-03-16T05:18:17.087Z,9.00
2019-03-16T05:20:47.883Z,9.20
2019-03-16T05:23:20.204Z,8.80
2019-03-16T05:25:50.889Z,9.20
2019-03-16T05:28:22.130Z,8.70
2019-03-16T05:30:52.508Z,9.00
2019-03-16T05:33:22.964Z,9.00
2019-03-16T05:35:55.923Z,8.70
2019-03-16T05:38:26.302Z,8.70
2019-03-16T05:40:57.864Z,8.90
2019-03-16T05:43:28.386Z,9.30
2019-03-16T05:45:58.823Z,9.20
2019-03-16T05:48:30.620Z,9.20
2019-03-16T05:51:01.301Z,9.00
2019-03-16T05:53:32.095Z,9.30
2019-03-16T05:56:03.480Z,9.30
2019-03-16T05:58:34.285Z,9.30
2019-03-16T06:01:04.713Z,9.30
2019-03-16T06:03:39.486Z,9.30
2019-03-16T06:06:10.321Z,9.30
2019-03-16T06:08:40.819Z,9.20
2019-03-16T06:11:13.249Z,9.20
2019-03-16T06:13:43.539Z,9.30
2019-03-16T06:16:15.810Z,9.30
2019-03-16T06:18:48.603Z,9.20
2019-03-16T06:21:20.401Z,9.30
2019-03-16T06:23:52.028Z,9.40
2019-03-16T06:26:23.983Z,9.60
2019-03-16T06:28:56.691Z,9.30
2019-03-16T06:31:29.553Z,9.30
2019-03-16T06:34:01.787Z,9.30
2019-03-16T06:36:33.775Z,9.30
2019-03-16T06:39:07.176Z,9.10
2019-03-16T06:41:43.229Z,9.40
2019-03-16T06:44:12.430Z,9.50
2019-03-16T06:46:42.832Z,9.60
2019-03-16T06:49:13.349Z,9.60
2019-03-16T06:51:43.717Z,9.50
2019-03-16T06:54:14.148Z,9.40
2019-03-16T06:56:44.988Z,9.60
2019-03-16T06:59:16.092Z,9.40
2019-03-16T07:01:46.844Z,9.50
2019-03-16T07:04:17.231Z,9.30
2019-03-16T07:06:48.037Z,9.50
2019-03-16T07:09:19.684Z,9.90
2019-03-16T07:11:50.121Z,9.90
2019-03-16T07:14:20.853Z,9.70
2019-03-16T07:17:01.571Z,9.70
2019-03-16T07:19:28.996Z,10.00
2019-03-16T07:22:01.236Z,10.10
2019-03-16T07:24:33.068Z,9.90
2019-03-16T07:27:03.832Z,10.00
2019-03-16T07:29:34.387Z,9.90
2019-03-16T07:32:06.855Z,10.00
2019-03-16T07:34:39.145Z,10.30
2019-03-16T07:37:12.712Z,9.80
2019-03-16T07:39:44.498Z,10.00
2019-03-16T07:42:14.907Z,10.10
2019-03-16T07:44:45.967Z,10.30
2019-03-16T07:47:20.486Z,10.40
2019-03-16T07:49:52.602Z,10.40
2019-03-16T07:52:23.714Z,10.80
2019-03-16T07:54:55.942Z,10.80
2019-03-16T07:57:39.209Z,11.00
2019-03-16T07:59:58.975Z,11.10
2019-03-16T08:02:29.745Z,11.60
2019-03-16T08:05:01.864Z,11.50
2019-03-16T08:07:32.266Z,11.60
2019-03-16T08:10:03.500Z,11.50
2019-03-16T08:12:36.089Z,11.50
2019-03-16T08:15:13.151Z,11.30
2019-03-16T08:17:43.609Z,11.10
2019-03-16T08:20:14.447Z,10.90
2019-03-16T08:22:46.933Z,10.90
2019-03-16T08:25:19.444Z,11.20
2019-03-16T08:27:54.437Z,11.10
2019-03-16T08:30:23.692Z,11.00
2019-03-16T08:32:55.175Z,11.10
2019-03-16T08:35:27.108Z,11.40
2019-03-16T08:37:59.229Z,11.20
2019-03-16T08:40:32.161Z,11.50
2019-03-16T08:43:04.697Z,11.50
2019-03-16T08:45:36.932Z,11.60
2019-03-16T08:48:21.809Z,11.60
2019-03-16T08:50:41.092Z,11.80
2019-03-16T08:53:12.538Z,11.60
2019-03-16T08:55:44.321Z,11.90
2019-03-16T08:58:15.056Z,12.00
2019-03-16T09:00:48.496Z,12.00
2019-03-16T09:03:22.084Z,12.20
2019-03-16T09:05:53.580Z,12.10
2019-03-16T09:08:25.596Z,12.10
2019-03-16T09:10:58.233Z,11.70
2019-03-16T09:13:28.935Z,11.70
2019-03-16T09:16:01.208Z,12.20
2019-03-16T09:18:32.659Z,12.20
2019-03-16T09:21:03.451Z,12.40
2019-03-16T09:23:34.282Z,12.90
2019-03-16T09:26:06.682Z,13.50
2019-03-16T09:28:38.046Z,13.50
2019-03-16T09:31:08.455Z,13.50
2019-03-16T09:33:38.925Z,13.20
2019-03-16T09:36:09.368Z,13.40
2019-03-16T09:38:42.596Z,13.50
2019-03-16T09:41:13.028Z,13.20
2019-03-16T09:43:43.768Z,12.90
2019-03-16T09:46:14.912Z,13.00
2019-03-16T09:48:46.288Z,12.80
2019-03-16T09:51:21.501Z,13.20
2019-03-16T09:53:53.070Z,13.30
2019-03-16T09:56:24.122Z,13.10
2019-03-16T09:58:56.495Z,13.00
2019-03-16T10:01:26.940Z,13.30
2019-03-16T10:03:59.284Z,13.30
2019-03-16T10:06:29.873Z,13.50
2019-03-16T10:09:02.390Z,13.30
2019-03-16T10:11:34.304Z,13.10
2019-03-16T10:14:04.736Z,13.70
2019-03-16T10:16:35.373Z,13.20
2019-03-16T10:19:06.154Z,13.30
2019-03-16T10:21:37.161Z,13.80
2019-03-16T10:24:07.719Z,13.90
2019-03-16T10:26:40.882Z,13.90
2019-03-16T10:29:12.852Z,15.20
2019-03-16T10:31:46.118Z,16.80
2019-03-16T10:34:19.618Z,17.30
2019-03-16T10:36:50.212Z,17.00
2019-03-16T10:39:21.877Z,16.10
2019-03-16T10:41:52.316Z,15.20
2019-03-16T10:44:23.032Z,15.00
2019-03-16T10:46:53.523Z,14.40
2019-03-16T10:49:25.329Z,14.20
2019-03-16T10:51:56.545Z,13.90
2019-03-16T10:54:28.027Z,14.30
2019-03-16T10:57:04.279Z,14.30
2019-03-16T10:59:34.559Z,14.10
2019-03-16T11:02:07.958Z,14.10
2019-03-16T11:04:39.723Z,13.50
2019-03-16T11:07:13.116Z,13.80
2019-03-16T11:09:43.684Z,13.90
2019-03-16T11:12:14.504Z,14.50
2019-03-16T11:14:49.600Z,15.30
2019-03-16T11:17:20.053Z,15.90
2019-03-16T11:19:50.376Z,15.50
2019-03-16T11:22:20.762Z,15.10
2019-03-16T11:24:53.543Z,14.40
2019-03-16T11:27:25.325Z,13.90
2019-03-16T11:29:57.755Z,13.70
2019-03-16T11:32:28.994Z,13.30
2019-03-16T11:35:02.791Z,13.20
2019-03-16T11:37:33.870Z,13.00
2019-03-16T11:40:05.585Z,13.00
2019-03-16T11:42:36.363Z,12.80
2019-03-16T11:45:07.502Z,12.80
2019-03-16T11:47:37.892Z,12.90
2019-03-16T11:50:08.665Z,13.30
2019-03-16T11:52:40.618Z,13.80
2019-03-16T11:55:12.766Z,13.80
2019-03-16T11:57:44.744Z,13.70
2019-03-16T12:00:16.978Z,13.90
2019-03-16T12:02:47.397Z,14.00
2019-03-16T12:05:21.528Z,13.80
2019-03-16T12:07:52.274Z,14.00
2019-03-16T12:10:24.548Z,14.10
2019-03-16T12:12:54.944Z,13.80
2019-03-16T12:15:25.698Z,14.00
2019-03-16T12:17:56.137Z,14.00
2019-03-16T12:20:26.608Z,14.10
2019-03-16T12:22:57.711Z,13.90
2019-03-16T12:25:28.097Z,14.10
2019-03-16T12:28:00.166Z,14.50
2019-03-16T12:30:33.726Z,14.30
2019-03-16T12:33:04.562Z,14.40
2019-03-16T12:35:35.367Z,14.10
2019-03-16T12:38:07.115Z,14.20
2019-03-16T12:40:39.303Z,14.30
2019-03-16T12:43:11.449Z,14.50
2019-03-16T12:45:45.145Z,14.40
2019-03-16T12:48:15.677Z,14.50
2019-03-16T12:50:47.332Z,14.70
2019-03-16T12:53:18.880Z,14.90
2019-03-16T12:55:51.130Z,15.10
2019-03-16T12:58:22.952Z,15.20
2019-03-16T13:00:53.733Z,15.40
2019-03-16T13:03:25.448Z,16.00
2019-03-16T13:05:59.736Z,16.20
2019-03-16T13:08:31.981Z,16.40
2019-03-16T13:11:03.059Z,15.80
2019-03-16T13:13:35.654Z,15.40
2019-03-16T13:16:06.121Z,15.70
2019-03-16T13:18:38.113Z,15.80
2019-03-16T13:21:10.106Z,15.60
2019-03-16T13:23:42.141Z,15.60
2019-03-16T13:26:12.612Z,15.80
2019-03-16T13:28:44.050Z,15.90
2019-03-16T13:31:14.970Z,16.10
2019-03-16T13:33:45.698Z,15.70
2019-03-16T13:36:16.204Z,15.70
2019-03-16T13:38:47.016Z,15.50
2019-03-16T13:41:17.834Z,15.70
2019-03-16T13:43:51.374Z,15.70
2019-03-16T13:46:21.832Z,15.90
2019-03-16T13:48:53.856Z,15.90
2019-03-16T13:51:24.525Z,15.90
2019-03-16T13:53:57.255Z,15.80
2019-03-16T13:56:27.682Z,15.80
2019-03-16T13:59:00.161Z,16.00
2019-03-16T14:01:33.124Z,15.80
2019-03-16T14:04:05.054Z,15.80
2019-03-16T14:06:35.669Z,15.80
2019-03-16T14:09:07.784Z,15.60
2019-03-16T14:11:41.129Z,15.60
2019-03-16T14:14:13.424Z,16.00
2019-03-16T14:16:44.302Z,16.00
2019-03-16T14:19:14.648Z,16.10
2019-03-16T14:21:47.216Z,16.00
2019-03-16T14:24:17.939Z,15.90
2019-03-16T14:26:48.957Z,15.80
2019-03-16T14:29:23.402Z,15.80
2019-03-16T14:31:53.852Z,15.70
2019-03-16T14:34:25.765Z,15.70
2019-03-16T14:36:58.590Z,15.90
2019-03-16T14:39:30.904Z,15.70
2019-03-16T14:42:01.503Z,15.30
2019-03-16T14:44:36.424Z,15.50
2019-03-16T14:47:07.262Z,15.60
2019-03-16T14:49:38.072Z,15.80
2019-03-16T14:52:09.440Z,15.60
2019-03-16T14:54:40.221Z,15.70
2019-03-16T14:57:14.052Z,15.90
2019-03-16T14:59:46.033Z,15.90
2019-03-16T15:02:16.363Z,15.80
2019-03-16T15:04:48.923Z,15.40
2019-03-16T15:07:19.875Z,15.60
2019-03-16T15:09:53.044Z,15.20
2019-03-16T15:12:23.431Z,15.10
2019-03-16T15:14:56.608Z,15.00
2019-03-16T15:17:28.885Z,15.30
2019-03-16T15:19:59.338Z,15.10
2019-03-16T15:22:31.434Z,15.40
2019-03-16T15:25:02.252Z,15.40
2019-03-16T15:27:33.128Z,14.90
2019-03-16T15:30:04.148Z,15.00
2019-03-16T15:32:36.785Z,15.10
2019-03-16T15:35:08.400Z,15.10
2019-03-16T15:37:38.872Z,15.50
2019-03-16T15:40:10.524Z,15.40
2019-03-16T15:42:46.060Z,15.30
2019-03-16T15:45:17.967Z,15.70
2019-03-16T15:47:51.695Z,15.70
2019-03-16T15:50:23.095Z,15.40
2019-03-16T15:52:54.167Z,15.40
2019-03-16T15:55:25.150Z,15.30
2019-03-16T15:58:07.297Z,15.50
2019-03-16T16:00:30.071Z,15.30
2019-03-16T16:03:01.664Z,15.00
2019-03-16T16:05:32.467Z,15.20
2019-03-16T16:08:03.885Z,15.40
2019-03-16T16:10:34.312Z,15.00
2019-03-16T16:13:05.088Z,14.60
2019-03-16T16:15:37.680Z,14.90
2019-03-16T16:18:11.250Z,14.60
2019-03-16T16:20:42.059Z,14.40
2019-03-16T16:23:12.520Z,14.50
2019-03-16T16:25:42.952Z,14.60
2019-03-16T16:28:14.912Z,14.60
2019-03-16T16:30:45.659Z,14.70
2019-03-16T16:33:16.345Z,14.20
2019-03-16T16:35:47.905Z,14.60
2019-03-16T16:38:19.012Z,14.20
2019-03-16T16:40:50.800Z,14.40
2019-03-16T16:43:24.440Z,14.30
2019-03-16T16:45:56.081Z,14.00
2019-03-16T16:48:26.485Z,14.00
2019-03-16T16:50:57.041Z,13.90
2019-03-16T16:53:27.476Z,13.70
2019-03-16T16:56:01.657Z,13.70
2019-03-16T16:58:38.339Z,14.00
2019-03-16T17:01:08.943Z,14.00
2019-03-16T17:03:40.337Z,13.60
2019-03-16T17:06:10.807Z,13.60
2019-03-16T17:08:44.402Z,13.40
2019-03-16T17:11:17.609Z,13.80
2019-03-16T17:13:48.600Z,13.50
2019-03-16T17:16:20.862Z,13.30
2019-03-16T17:18:52.294Z,13.20
2019-03-16T17:21:24.194Z,13.40
2019-03-16T17:23:54.655Z,13.50
2019-03-16T17:26:25.414Z,13.30
2019-03-16T17:28:56.592Z,13.20
2019-03-16T17:31:28.147Z,12.90
2019-03-16T17:33:58.904Z,13.20
2019-03-16T17:36:29.301Z,13.20
2019-03-16T17:39:03.271Z,13.10
2019-03-16T17:41:35.761Z,12.80
2019-03-16T17:44:07.532Z,12.80
2019-03-16T17:46:38.544Z,12.70
2019-03-16T17:49:11.783Z,12.80
2019-03-16T17:51:42.852Z,12.50
2019-03-16T17:54:15.059Z,12.70
2019-03-16T17:56:45.862Z,12.40
2019-03-16T17:59:17.523Z,12.70
2019-03-16T18:01:54.531Z,12.50
2019-03-16T18:04:20.503Z,12.20
2019-03-16T18:06:50.912Z,12.10
2019-03-16T18:09:25.173Z,12.30
2019-03-16T18:11:56.717Z,12.10
2019-03-16T18:14:28.358Z,12.00
2019-03-16T18:17:00.343Z,12.20
2019-03-16T18:19:32.464Z,11.80
2019-03-16T18:22:04.305Z,12.20
2019-03-16T18:24:36.341Z,11.80
2019-03-16T18:27:07.141Z,11.90
2019-03-16T18:29:38.209Z,11.80
2019-03-16T18:32:10.315Z,11.90
2019-03-16T18:34:42.909Z,11.80
2019-03-16T18:37:15.092Z,11.90
2019-03-16T18:39:45.861Z,12.10
2019-03-16T18:42:17.848Z,11.70
2019-03-16T18:44:48.330Z,11.90
2019-03-16T18:47:18.760Z,11.80
2019-03-16T18:49:51.873Z,11.90
2019-03-16T18:52:22.502Z,11.80
2019-03-16T18:54:53.024Z,11.60
2019-03-16T18:57:24.653Z,12.00
2019-03-16T18:59:56.762Z,11.90
2019-03-16T19:02:27.125Z,11.70
2019-03-16T19:04:57.580Z,12.00
2019-03-16T19:07:29.794Z,11.90
2019-03-16T19:10:00.373Z,12.00
2019-03-16T19:12:33.339Z,12.00
2019-03-16T19:15:06.081Z,12.00
2019-03-16T19:17:38.373Z,11.70
2019-03-16T19:20:11.148Z,11.90
2019-03-16T19:22:43.987Z,12.10
2019-03-16T19:25:16.393Z,12.00
2019-03-16T19:27:47.139Z,11.80
2019-03-16T19:30:19.220Z,12.00
2019-03-16T19:32:50.025Z,11.70
2019-03-16T19:35:22.340Z,11.60
2019-03-16T19:37:52.813Z,11.60
2019-03-16T19:40:26.729Z,11.40
2019-03-16T19:42:58.247Z,11.60
2019-03-16T19:45:29.770Z,11.50
2019-03-16T19:48:03.144Z,11.50
2019-03-16T19:50:35.223Z,11.60
2019-03-16T19:53:05.650Z,11.50
2019-03-16T19:55:42.122Z,11.30
2019-03-16T19:58:13.208Z,11.30
2019-03-16T20:00:44.782Z,11.60
2019-03-16T20:03:15.481Z,11.50
2019-03-16T20:05:47.814Z,11.50
2019-03-16T20:08:27.569Z,11.50
2019-03-16T20:11:06.530Z,11.20
2019-03-16T20:13:32.746Z,11.40
2019-03-16T20:16:06.113Z,11.50
2019-03-16T20:18:36.871Z,11.50
2019-03-16T20:21:07.663Z,11.30
2019-03-16T20:23:39.411Z,11.60
2019-03-16T20:26:10.275Z,11.70
2019-03-16T20:28:40.664Z,11.80
2019-03-16T20:31:12.806Z,11.70
2019-03-16T20:33:45.407Z,11.90
2019-03-16T20:36:21.253Z,11.60
2019-03-16T20:38:51.589Z,11.80
2019-03-16T20:41:35.594Z,11.80
2019-03-16T20:43:55.776Z,11.80
2019-03-16T20:46:28.358Z,11.90
2019-03-16T20:48:59.843Z,11.90
2019-03-16T20:51:30.313Z,11.70
2019-03-16T20:54:01.503Z,11.70
2019-03-16T20:56:32.122Z,11.70
2019-03-16T20:59:02.572Z,11.60
2019-03-16T21:01:33.837Z,11.90
2019-03-16T21:04:06.826Z,11.50
2019-03-16T21:06:38.727Z,11.60
2019-03-16T21:09:11.696Z,11.50
2019-03-16T21:11:44.025Z,11.50
2019-03-16T21:14:14.496Z,11.70
2019-03-16T21:16:46.072Z,11.50
2019-03-16T21:19:16.435Z,11.30
2019-03-16T21:21:47.217Z,11.30
2019-03-16T21:24:19.601Z,11.40
2019-03-16T21:26:53.083Z,11.30
2019-03-16T21:29:26.319Z,11.60
2019-03-16T21:31:57.348Z,11.50
2019-03-16T21:34:28.962Z,11.50
2019-03-16T21:36:59.564Z,11.30
2019-03-16T21:39:33.719Z,11.40
2019-03-16T21:42:04.378Z,11.50
2019-03-16T21:44:35.973Z,11.20
2019-03-16T21:47:06.655Z,11.10
2019-03-16T21:49:39.075Z,11.10
2019-03-16T21:52:11.740Z,11.40
2019-03-16T21:54:43.704Z,11.20
2019-03-16T21:57:14.238Z,10.50
2019-03-16T21:59:47.258Z,10.80
2019-03-16T22:04:51.945Z,10.60
2019-03-16T22:07:24.760Z,10.10
2019-03-16T22:09:56.849Z,10.00
2019-03-16T22:12:29.172Z,10.00
2019-03-16T22:14:59.620Z,10.00
2019-03-16T22:17:31.475Z,9.80
2019-03-16T22:20:03.506Z,9.40
2019-03-16T22:22:33.921Z,9.40
2019-03-16T22:25:04.905Z,9.60
2019-03-16T22:27:36.526Z,9.20
2019-03-16T22:30:07.472Z,9.20
2019-03-16T22:32:38.985Z,9.10
2019-03-16T22:35:12.616Z,9.00
2019-03-16T22:37:46.101Z,9.00
2019-03-16T22:40:16.967Z,9.00
2019-03-16T22:42:48.523Z,8.90
2019-03-16T22:45:21.462Z,8.90
2019-03-16T22:47:52.276Z,9.00
2019-03-16T22:50:23.090Z,9.00
2019-03-16T22:52:55.405Z,8.80
2019-03-16T22:55:25.889Z,8.90
2019-03-16T22:57:57.291Z,8.90
2019-03-16T23:00:38.853Z,8.90
2019-03-16T23:03:11.166Z,9.10
2019-03-16T23:05:44.932Z,8.90
2019-03-16T23:08:20.246Z,9.00
2019-03-16T23:10:53.797Z,9.00
2019-03-16T23:13:28.336Z,9.00
2019-03-16T23:15:58.818Z,8.80
2019-03-16T23:18:29.206Z,8.90
2019-03-16T23:20:59.649Z,8.90
2019-03-16T23:23:31.889Z,8.70
2019-03-16T23:26:03.809Z,8.90
2019-03-16T23:28:36.200Z,8.80
2019-03-16T23:31:06.897Z,8.60
2019-03-16T23:33:37.298Z,8.70
2019-03-16T23:36:09.657Z,8.70
2019-03-16T23:38:40.286Z,8.90
2019-03-16T23:41:12.262Z,9.00
2019-03-16T23:43:43.164Z,8.90
2019-03-16T23:46:14.025Z,9.00
2019-03-16T23:48:46.575Z,9.20
2019-03-16T23:51:17.426Z,9.10
2019-03-16T23:53:49.624Z,9.30
2019-03-16T23:56:20.034Z,9.40
2019-03-16T23:58:50.812Z,9.30
